createdAt,value
2022-08-05T00:15:56.074Z,78.7
2022-08-05T00:20:34.720Z,78.6
2022-08-05T00:30:34.722Z,78.5
2022-08-05T00:40:34.727Z,78.7
2022-08-05T00:50:34.733Z,78.8
2022-08-05T01:00:34.775Z,78.9
2022-08-05T01:05:34.725Z,78.9
2022-08-05T01:15:35.656Z,78.9
2022-08-05T01:30:35.212Z,79.1
2022-08-05T01:35:51.131Z,79
2022-08-05T01:45:43.150Z,79.1
2022-08-05T01:50:34.752Z,78.9
2022-08-05T02:00:34.738Z,79.2
2022-08-05T02:10:34.817Z,79.1
2022-08-05T02:20:39.164Z,79.3
2022-08-05T02:30:34.740Z,79.4
2022-08-05T02:50:34.774Z,79.3
2022-08-05T02:55:54.711Z,79.4
2022-08-05T03:00:34.776Z,79.6
2022-08-05T03:10:34.766Z,79.7
2022-08-05T03:15:34.788Z,79.5
2022-08-05T03:26:04.529Z,79.5
2022-08-05T03:35:40.907Z,79.8
2022-08-05T03:40:35.836Z,79.7
2022-08-05T03:50:34.794Z,79.5
2022-08-05T04:05:34.920Z,79.6
2022-08-05T04:10:38.139Z,79.5
2022-08-05T04:20:34.857Z,79.4
2022-08-05T04:25:56.518Z,79.4
2022-08-05T04:36:10.831Z,79.5
2022-08-05T04:40:34.809Z,79.6
2022-08-05T04:45:48.145Z,79.6
2022-08-05T04:50:37.539Z,79.7
2022-08-05T05:00:34.804Z,79.1
2022-08-05T05:05:34.823Z,79.2
2022-08-05T05:30:35.077Z,79.5
2022-08-05T05:35:39.584Z,79.5
2022-08-05T05:45:34.829Z,79.6
2022-08-05T05:55:52.237Z,79.9
2022-08-05T06:05:34.836Z,79.7
2022-08-05T06:10:37.362Z,79.9
2022-08-05T06:16:28.193Z,80
2022-08-05T06:26:12.160Z,80
2022-08-05T06:30:34.854Z,80
2022-08-05T06:45:44.981Z,79.8
2022-08-05T06:50:34.849Z,79.7
2022-08-05T06:55:36.338Z,79.9
2022-08-05T07:05:37.798Z,79.9
2022-08-05T07:10:34.861Z,80
2022-08-05T07:16:01.922Z,80.1
2022-08-05T07:25:54.654Z,80.1
2022-08-05T07:30:38.258Z,80
2022-08-05T07:36:05.058Z,80.1
2022-08-05T07:40:34.916Z,80
2022-08-05T07:45:57.236Z,80.1
2022-08-05T08:05:39.663Z,79.8
2022-08-05T08:10:34.876Z,79.9
2022-08-05T08:21:00.666Z,80.1
2022-08-05T08:30:40.699Z,80.2
2022-08-05T08:35:40.952Z,80.2
2022-08-05T08:40:35.112Z,80.1
2022-08-05T08:51:07.560Z,80.3
2022-08-05T08:56:03.788Z,80.1
2022-08-05T09:06:07.904Z,80.2
2022-08-05T09:26:02.755Z,80.8
2022-08-05T09:35:34.906Z,79.9
2022-08-05T09:46:07.640Z,79.1
2022-08-05T09:50:38.536Z,79.5
2022-08-05T09:55:57.384Z,79.2
2022-08-05T10:05:34.921Z,79.8
2022-08-05T10:10:34.915Z,79.5
2022-08-05T10:15:34.931Z,79.4
2022-08-05T10:25:34.938Z,79.4
2022-08-05T10:45:41.905Z,79.9
2022-08-05T10:56:03.649Z,79.9
2022-08-05T11:00:34.946Z,79.7
2022-08-05T11:10:34.945Z,79.8
2022-08-05T11:15:58.944Z,79.5
2022-08-05T11:20:34.960Z,79.1
2022-08-05T11:26:04.742Z,78.6
2022-08-05T11:35:34.944Z,78.3
2022-08-05T11:40:34.969Z,78.2
2022-08-05T12:05:39.827Z,78.3
2022-08-05T12:15:38.740Z,78.4
2022-08-05T12:25:35.272Z,78.8
2022-08-05T12:35:39.478Z,79.3
2022-08-05T12:45:50.097Z,78.7
2022-08-05T12:50:34.993Z,79.3
2022-08-05T13:02:01.884Z,78.4
2022-08-05T13:20:34.995Z,78.1
2022-08-05T13:30:38.972Z,78.3
2022-08-05T13:40:49.982Z,78.2
2022-08-05T13:50:35.000Z,79.3
2022-08-05T13:55:41.889Z,78.6
2022-08-05T14:00:35.021Z,79.2
2022-08-05T14:06:24.479Z,79
2022-08-05T14:16:05.878Z,78.2
2022-08-05T14:20:35.011Z,78.6
2022-08-05T14:40:35.020Z,78.8
2022-08-05T14:45:35.023Z,78.8
2022-08-05T14:50:36.014Z,79.2
2022-08-05T14:55:39.637Z,78.8
2022-08-05T15:06:13.128Z,79.1
2022-08-05T15:10:35.044Z,79.3
2022-08-05T15:15:54.127Z,79
2022-08-05T15:25:50.888Z,78.7
2022-08-05T15:30:35.051Z,78.7
2022-08-05T15:35:35.932Z,78.9
2022-08-05T16:05:35.055Z,79.4
2022-08-05T16:10:35.144Z,79.1
2022-08-05T16:15:35.083Z,79.3
2022-08-05T16:20:35.110Z,79.4
2022-08-05T16:30:36.134Z,79.1
2022-08-05T16:40:35.200Z,79.2
2022-08-05T16:46:06.598Z,78.9
2022-08-05T16:50:35.102Z,78.3
2022-08-05T16:55:46.943Z,78.4
2022-08-05T17:05:37.120Z,78.2
2022-08-05T17:10:35.104Z,79
2022-08-05T17:36:08.721Z,77.9
2022-08-05T17:45:38.596Z,78.7
2022-08-05T17:55:39.516Z,78.8
2022-08-05T18:05:35.481Z,78.6
2022-08-05T18:15:35.132Z,78.1
2022-08-05T18:25:35.095Z,78.8
2022-08-05T18:30:35.125Z,78.7
2022-08-05T18:35:49.629Z,78.8
2022-08-05T18:41:55.691Z,78.9
2022-08-05T19:06:13.002Z,78.1
2022-08-05T19:15:59.901Z,78.1
2022-08-05T19:20:35.141Z,76.8
2022-08-05T19:25:38.174Z,77.5
2022-08-05T19:35:55.853Z,75.7
2022-08-05T19:45:36.485Z,75.9
2022-08-05T19:50:35.168Z,75.7
2022-08-05T20:00:35.249Z,75.7
2022-08-05T20:10:35.159Z,75.4
2022-08-05T20:30:35.171Z,75.6
2022-08-05T20:40:35.145Z,76.2
2022-08-05T20:45:47.702Z,75.6
2022-08-05T20:50:36.933Z,75.3
2022-08-05T21:00:49.818Z,75
2022-08-05T21:10:35.165Z,75
2022-08-05T21:20:35.157Z,75.3
2022-08-05T21:25:35.167Z,75.4
2022-08-05T21:30:35.171Z,75.4
2022-08-05T21:50:36.745Z,74.8
2022-08-05T22:00:35.312Z,73.4
2022-08-05T22:05:48.414Z,73.5
2022-08-05T22:10:35.317Z,72.4
2022-08-05T22:20:35.680Z,72.8
2022-08-05T22:26:10.453Z,73.5
2022-08-05T22:35:49.276Z,74
2022-08-05T22:40:35.202Z,73.7
2022-08-05T22:50:35.202Z,74.4
2022-08-05T23:05:36.030Z,73.1
2022-08-05T23:10:35.217Z,72.4
2022-08-05T23:15:36.346Z,72
2022-08-05T23:20:37.259Z,71.4
2022-08-05T23:30:35.212Z,72
2022-08-05T23:35:35.214Z,72.3
2022-08-05T23:40:35.264Z,71.6
2022-08-05T23:50:35.217Z,70.4
2022-08-05T23:55:35.218Z,70.2
